createdAt,value
2019-04-05T00:01:21.240Z,9.53
2019-04-05T00:03:51.141Z,8.60
2019-04-05T00:06:21.557Z,9.40
2019-04-05T00:08:51.456Z,9.28
2019-04-05T00:11:21.461Z,8.40
2019-04-05T00:13:51.324Z,7.72
2019-04-05T00:16:21.232Z,9.58
2019-04-05T00:18:51.320Z,7.72
2019-04-05T00:21:21.224Z,9.53
2019-04-05T00:23:51.143Z,10.40
2019-04-05T00:26:21.013Z,8.95
2019-04-05T00:28:51.833Z,9.13
2019-04-05T00:31:22.203Z,9.50
2019-04-05T00:33:52.172Z,8.68
2019-04-05T00:36:22.146Z,8.53
2019-04-05T00:38:52.088Z,8.83
2019-04-05T00:41:22.201Z,9.45
2019-04-05T00:43:52.072Z,8.88
2019-04-05T00:46:21.972Z,8.53
2019-04-05T00:48:51.841Z,8.45
2019-04-05T00:51:22.184Z,9.58
2019-04-05T00:53:52.057Z,8.53
2019-04-05T00:56:21.982Z,7.97
2019-04-05T00:58:52.952Z,8.58
2019-04-05T01:01:22.857Z,9.40
2019-04-05T01:03:52.736Z,9.85
2019-04-05T01:06:22.631Z,8.38
2019-04-05T01:08:52.520Z,8.00
2019-04-05T01:11:22.429Z,9.43
2019-04-05T01:13:52.464Z,8.43
2019-04-05T01:16:22.407Z,9.55
2019-04-05T01:18:52.383Z,8.18
2019-04-05T01:21:22.324Z,9.33
2019-04-05T01:23:52.672Z,8.58
2019-04-05T01:26:22.777Z,8.43
2019-04-05T01:28:52.680Z,8.58
2019-04-05T01:31:22.578Z,7.30
2019-04-05T01:33:52.460Z,6.72
2019-04-05T01:36:22.323Z,7.47
2019-04-05T01:38:52.300Z,7.83
2019-04-05T01:41:22.168Z,8.53
2019-04-05T01:43:52.064Z,6.67
2019-04-05T01:46:22.150Z,9.63
2019-04-05T01:48:52.057Z,8.78
2019-04-05T01:51:21.959Z,8.15
2019-04-05T01:53:51.842Z,10.23
2019-04-05T01:56:21.731Z,7.10
2019-04-05T01:58:51.672Z,8.23
2019-04-05T02:01:22.744Z,9.80
2019-04-05T02:03:52.612Z,8.03
2019-04-05T02:06:22.588Z,8.28
2019-04-05T02:08:53.826Z,8.88
2019-04-05T02:11:23.728Z,9.73
2019-04-05T02:13:53.594Z,8.53
2019-04-05T02:16:23.491Z,8.55
2019-04-05T02:18:53.403Z,9.28
2019-04-05T02:21:23.289Z,8.60
2019-04-05T02:23:53.180Z,8.83
2019-04-05T02:26:23.056Z,8.70
2019-04-05T02:28:53.035Z,8.53
2019-04-05T02:31:22.920Z,10.50
2019-04-05T02:33:52.834Z,10.00
2019-04-05T02:36:22.705Z,9.13
2019-04-05T02:38:52.824Z,9.80
2019-04-05T02:41:23.096Z,10.60
2019-04-05T02:43:52.989Z,9.80
2019-04-05T02:46:24.358Z,9.90
2019-04-05T02:48:54.576Z,9.70
2019-04-05T02:51:24.755Z,8.60
2019-04-05T02:53:54.661Z,10.50
2019-04-05T02:56:24.585Z,8.88
2019-04-05T02:58:54.493Z,8.83
2019-04-05T03:01:24.429Z,9.35
2019-04-05T03:03:54.472Z,8.85
2019-04-05T03:06:24.344Z,9.80
2019-04-05T03:08:54.237Z,11.03
2019-04-05T03:11:26.321Z,8.95
2019-04-05T03:13:57.476Z,10.08
2019-04-05T03:16:40.315Z,10.60
2019-04-05T03:19:07.317Z,8.45
2019-04-05T03:21:39.595Z,9.55
2019-04-05T03:24:11.715Z,9.55
2019-04-05T03:26:44.841Z,9.85
2019-04-05T03:29:14.814Z,8.70
2019-04-05T03:31:44.771Z,9.48
2019-04-05T03:34:14.682Z,10.23
2019-04-05T03:36:44.587Z,7.40
2019-04-05T03:39:14.616Z,10.30
2019-04-05T03:41:44.560Z,8.83
2019-04-05T03:44:14.462Z,8.85
2019-04-05T03:46:56.417Z,10.68
2019-04-05T03:49:15.886Z,7.97
2019-04-05T03:51:45.740Z,9.85
2019-04-05T03:54:15.660Z,10.48
2019-04-05T03:56:45.529Z,10.65
2019-04-05T03:59:15.435Z,9.73
2019-04-05T04:01:45.326Z,9.98
2019-04-05T04:04:15.194Z,8.83
2019-04-05T04:06:45.092Z,9.95
2019-04-05T04:09:15.037Z,8.40
2019-04-05T04:11:45.025Z,9.55
2019-04-05T04:14:14.884Z,9.78
2019-04-05T04:16:44.805Z,11.25
2019-04-05T04:19:14.739Z,11.00
2019-04-05T04:21:54.201Z,11.57
2019-04-05T04:24:24.081Z,11.20
2019-04-05T04:26:54.252Z,8.50
2019-04-05T04:29:24.135Z,8.95
2019-04-05T04:31:54.041Z,9.78
2019-04-05T04:34:24.092Z,11.80
2019-04-05T04:36:54.075Z,12.05
2019-04-05T04:39:24.036Z,10.28
2019-04-05T04:41:53.937Z,8.28
2019-04-05T04:44:23.820Z,10.28
2019-04-05T04:46:53.740Z,11.73
2019-04-05T04:49:23.609Z,9.03
2019-04-05T04:51:53.540Z,12.15
2019-04-05T04:54:23.451Z,8.90
2019-04-05T04:56:53.369Z,10.63
2019-04-05T04:59:23.348Z,10.00
2019-04-05T05:01:53.231Z,11.30
2019-04-05T05:04:23.181Z,11.38
2019-04-05T05:06:53.125Z,11.12
2019-04-05T05:09:23.047Z,11.35
2019-04-05T05:11:52.953Z,9.13
2019-04-05T05:14:22.820Z,9.20
2019-04-05T05:16:52.720Z,12.07
2019-04-05T05:19:22.660Z,9.63
2019-04-05T05:21:52.573Z,11.15
2019-04-05T05:24:22.486Z,10.68
2019-04-05T05:26:52.520Z,12.70
2019-04-05T05:29:22.520Z,15.72
2019-04-05T05:31:52.428Z,12.45
2019-04-05T05:34:22.336Z,12.45
2019-04-05T05:36:52.221Z,12.73
2019-04-05T05:39:23.453Z,13.95
2019-04-05T05:41:53.436Z,17.45
2019-04-05T05:44:23.345Z,14.47
2019-04-05T05:46:53.281Z,16.05
2019-04-05T05:49:23.215Z,15.80
2019-04-05T05:51:53.084Z,14.03
2019-04-05T05:54:54.413Z,13.78
2019-04-05T05:57:24.324Z,13.80
2019-04-05T06:00:12.959Z,14.00
2019-04-05T06:02:42.863Z,16.42
2019-04-05T06:05:13.220Z,12.85
2019-04-05T06:07:43.122Z,12.73
2019-04-05T06:10:13.096Z,13.25
2019-04-05T06:12:42.972Z,13.13
2019-04-05T06:15:12.965Z,12.47
2019-04-05T06:17:42.916Z,18.40
2019-04-05T06:20:12.934Z,15.48
2019-04-05T06:22:42.872Z,17.23
2019-04-05T06:25:12.783Z,16.95
2019-04-05T06:27:42.824Z,18.37
2019-04-05T06:30:12.790Z,13.90
2019-04-05T06:32:42.680Z,16.07
2019-04-05T06:35:12.548Z,18.73
2019-04-05T06:37:45.004Z,21.23
2019-04-05T06:40:14.912Z,12.90
2019-04-05T06:42:44.860Z,13.08
2019-04-05T06:45:14.777Z,18.23
2019-04-05T06:47:44.752Z,12.68
2019-04-05T06:50:16.293Z,13.95
2019-04-05T06:53:05.676Z,17.20
2019-04-05T06:55:35.580Z,18.10
2019-04-05T06:58:05.457Z,16.60
2019-04-05T07:00:35.496Z,15.55
2019-04-05T07:03:05.440Z,16.80
2019-04-05T07:05:35.323Z,13.18
2019-04-05T07:08:05.239Z,12.65
2019-04-05T07:10:35.480Z,15.98
2019-04-05T07:13:05.475Z,19.12
2019-04-05T07:15:35.796Z,17.75
2019-04-05T07:18:05.724Z,16.57
2019-04-05T07:20:35.600Z,16.35
2019-04-05T07:23:05.268Z,18.80
2019-04-05T07:25:35.175Z,17.40
2019-04-05T07:28:05.058Z,16.37
2019-04-05T07:30:35.012Z,17.35
2019-04-05T07:33:06.092Z,15.50
2019-04-05T07:35:35.982Z,18.23
2019-04-05T07:38:05.958Z,18.48
2019-04-05T07:40:35.911Z,15.48
2019-04-05T07:43:05.815Z,17.87
2019-04-05T07:45:35.768Z,17.95
2019-04-05T07:48:05.724Z,16.77
2019-04-05T07:50:36.101Z,17.92
2019-04-05T07:53:09.637Z,14.18
2019-04-05T07:55:39.547Z,15.93
2019-04-05T07:58:09.534Z,16.07
2019-04-05T08:00:49.016Z,18.17
2019-04-05T08:03:18.987Z,18.52
2019-04-05T08:05:50.113Z,17.65
2019-04-05T08:08:46.980Z,17.62
2019-04-05T08:11:17.530Z,19.10
2019-04-05T08:13:47.536Z,15.78
2019-04-05T08:16:17.415Z,14.65
2019-04-05T08:18:56.927Z,15.40
2019-04-05T08:21:18.833Z,17.55
2019-04-05T08:23:48.776Z,12.35
2019-04-05T08:26:18.688Z,16.10
2019-04-05T08:28:48.564Z,15.95
2019-04-05T08:31:18.481Z,16.70
2019-04-05T08:33:48.392Z,18.02
2019-04-05T08:36:18.268Z,16.57
2019-04-05T08:38:48.181Z,17.15
2019-04-05T08:41:18.059Z,16.10
2019-04-05T08:43:47.991Z,15.55
2019-04-05T08:46:17.869Z,16.12
2019-04-05T08:48:47.484Z,14.57
2019-04-05T08:51:17.364Z,17.10
2019-04-05T08:53:47.346Z,16.00
2019-04-05T08:56:17.229Z,15.48
2019-04-05T08:58:47.106Z,14.73
2019-04-05T09:01:17.012Z,17.65
2019-04-05T09:03:46.597Z,14.67
2019-04-05T09:06:16.213Z,15.87
2019-04-05T09:08:45.852Z,12.77
2019-04-05T09:11:15.463Z,12.60
2019-04-05T09:13:45.346Z,15.20
2019-04-05T09:16:14.928Z,13.03
2019-04-05T09:18:44.531Z,13.37
2019-04-05T09:21:14.144Z,14.60
2019-04-05T09:23:43.714Z,13.93
2019-04-05T09:26:13.300Z,10.73
2019-04-05T09:28:42.919Z,12.67
2019-04-05T09:31:12.552Z,13.27
2019-04-05T09:33:42.140Z,11.80
2019-04-05T09:36:11.751Z,13.83
2019-04-05T09:38:41.337Z,11.73
2019-04-05T09:41:12.104Z,11.70
2019-04-05T09:43:43.151Z,12.87
2019-04-05T09:46:12.842Z,10.73
2019-04-05T09:48:42.416Z,11.60
2019-04-05T09:51:12.020Z,9.27
2019-04-05T09:53:41.767Z,9.87
2019-04-05T09:56:11.416Z,14.00
2019-04-05T09:58:41.109Z,10.73
2019-04-05T10:01:10.764Z,10.67
2019-04-05T10:03:40.375Z,11.50
2019-04-05T10:06:09.960Z,11.13
2019-04-05T10:08:39.546Z,12.00
2019-04-05T10:11:09.144Z,9.90
2019-04-05T10:13:38.727Z,11.57
2019-04-05T10:16:08.424Z,11.43
2019-04-05T10:18:38.008Z,10.17
2019-04-05T10:21:07.591Z,11.17
2019-04-05T10:23:37.190Z,10.87
2019-04-05T10:26:06.837Z,9.17
2019-04-05T10:28:36.500Z,11.57
2019-04-05T10:31:06.085Z,11.73
2019-04-05T10:33:35.878Z,10.43
2019-04-05T10:36:05.508Z,12.23
2019-04-05T10:38:35.152Z,10.80
2019-04-05T10:41:05.109Z,11.13
2019-04-05T10:43:34.739Z,13.50
2019-04-05T10:46:05.836Z,13.13
2019-04-05T10:48:35.648Z,10.83
2019-04-05T10:51:05.430Z,11.63
2019-04-05T10:53:35.103Z,10.27
2019-04-05T10:56:04.685Z,10.13
2019-04-05T10:58:34.412Z,11.37
2019-04-05T11:01:04.030Z,11.43
2019-04-05T11:03:37.820Z,13.00
2019-04-05T11:08:37.460Z,12.88
2019-04-05T11:11:07.072Z,12.67
2019-04-05T11:13:36.652Z,11.57
2019-04-05T11:16:06.264Z,12.80
2019-04-05T11:18:36.251Z,13.50
2019-04-05T11:21:06.027Z,11.77
2019-04-05T11:23:35.605Z,15.33
2019-04-05T11:26:05.256Z,15.37
2019-04-05T11:28:34.945Z,12.13
2019-04-05T11:31:06.800Z,12.57
2019-04-05T11:33:37.685Z,13.93
2019-04-05T11:36:09.046Z,13.93
2019-04-05T11:38:41.467Z,12.63
2019-04-05T11:41:11.147Z,12.83
2019-04-05T11:43:40.877Z,14.40
2019-04-05T11:46:10.521Z,14.17
2019-04-05T11:48:41.429Z,15.40
2019-04-05T11:51:12.336Z,13.67
2019-04-05T11:53:41.955Z,12.53
2019-04-05T11:56:14.821Z,16.10
2019-04-05T11:58:44.507Z,12.80
2019-04-05T12:01:16.842Z,14.50
2019-04-05T12:03:49.351Z,12.67
2019-04-05T12:06:30.374Z,16.20
2019-04-05T12:09:01.375Z,11.73
2019-04-05T12:11:36.980Z,13.70
2019-04-05T12:14:09.730Z,16.07
2019-04-05T12:16:46.870Z,16.07
2019-04-05T12:19:17.193Z,16.80
2019-04-05T12:21:48.029Z,14.13
2019-04-05T12:24:18.787Z,15.10
2019-04-05T12:26:50.232Z,14.23
2019-04-05T12:29:21.272Z,14.10
2019-04-05T12:31:55.690Z,12.80
2019-04-05T12:34:28.396Z,12.87
2019-04-05T12:36:57.722Z,14.00
2019-04-05T12:39:31.410Z,13.17
2019-04-05T12:42:04.264Z,14.30
2019-04-05T12:44:33.920Z,13.43
2019-04-05T12:50:03.354Z,13.17
2019-04-05T12:52:40.107Z,13.87
2019-04-05T12:55:14.794Z,14.37
2019-04-05T12:57:48.454Z,16.13
2019-04-05T13:00:19.744Z,11.55
2019-04-05T13:02:50.466Z,12.33
2019-04-05T13:05:23.592Z,13.07
2019-04-05T13:07:55.946Z,14.80
2019-04-05T13:10:30.330Z,13.47
2019-04-05T13:12:58.770Z,12.10
2019-04-05T13:15:32.119Z,12.87
2019-04-05T13:18:02.382Z,10.80
2019-04-05T13:20:35.923Z,11.10
2019-04-05T13:23:10.209Z,10.32
2019-04-05T13:25:48.055Z,9.65
2019-04-05T13:28:20.612Z,9.80
2019-04-05T13:30:50.353Z,11.67
2019-04-05T13:33:23.634Z,11.73
2019-04-05T13:35:59.411Z,9.30
2019-04-05T13:38:32.203Z,12.93
2019-04-05T13:41:05.231Z,13.33
2019-04-05T13:43:35.559Z,15.30
2019-04-05T13:46:05.585Z,13.77
2019-04-05T13:48:39.656Z,13.73
2019-04-05T13:51:12.142Z,13.80
2019-04-05T13:53:41.200Z,13.18
2019-04-05T13:56:13.850Z,13.57
2019-04-05T13:58:46.924Z,14.37
2019-04-05T14:01:20.778Z,13.90
2019-04-05T14:03:50.346Z,14.07
2019-04-05T14:06:20.464Z,14.03
2019-04-05T14:08:51.340Z,14.90
2019-04-05T14:11:21.973Z,12.63
2019-04-05T14:13:51.656Z,14.20
2019-04-05T14:16:21.718Z,13.70
2019-04-05T14:18:51.788Z,14.37
2019-04-05T14:21:22.492Z,16.90
2019-04-05T14:23:54.047Z,15.17
2019-04-05T14:26:33.279Z,13.80
2019-04-05T14:29:04.372Z,15.47
2019-04-05T14:31:35.377Z,12.77
2019-04-05T14:34:06.363Z,15.67
2019-04-05T14:36:36.644Z,15.43
2019-04-05T14:39:09.588Z,14.00
2019-04-05T14:41:39.245Z,16.00
2019-04-05T14:44:09.372Z,12.40
2019-04-05T14:46:42.051Z,12.90
2019-04-05T14:49:14.240Z,16.60
2019-04-05T14:51:53.736Z,15.07
2019-04-05T14:54:17.570Z,13.30
2019-04-05T14:56:51.307Z,13.30
2019-04-05T14:59:23.108Z,12.63
2019-04-05T15:01:52.820Z,13.47
2019-04-05T15:04:22.496Z,12.90
2019-04-05T15:06:52.871Z,12.20
2019-04-05T15:09:25.591Z,12.83
2019-04-05T15:11:58.349Z,11.77
2019-04-05T15:14:48.878Z,14.13
2019-04-05T15:17:18.673Z,14.50
2019-04-05T15:19:49.968Z,13.47
2019-04-05T15:22:20.936Z,15.13
2019-04-05T15:24:50.547Z,13.80
2019-04-05T15:27:21.598Z,15.30
2019-04-05T15:29:55.460Z,15.57
2019-04-05T15:32:25.469Z,12.87
2019-04-05T15:34:56.542Z,14.97
2019-04-05T15:37:31.763Z,16.47
2019-04-05T15:40:00.448Z,15.90
2019-04-05T15:42:32.882Z,16.27
2019-04-05T15:45:08.050Z,14.97
2019-04-05T15:47:38.459Z,14.95
2019-04-05T15:50:08.219Z,14.67
2019-04-05T15:52:44.073Z,14.53
2019-04-05T15:55:18.616Z,13.37
2019-04-05T15:57:49.581Z,12.13
2019-04-05T16:00:25.853Z,15.13
2019-04-05T16:02:56.455Z,15.30
2019-04-05T16:05:29.626Z,15.23
2019-04-05T16:08:03.498Z,14.70
2019-04-05T16:10:34.704Z,16.07
2019-04-05T16:13:13.045Z,18.17
2019-04-05T16:15:45.330Z,16.87
2019-04-05T16:18:15.860Z,15.63
2019-04-05T16:20:51.250Z,17.53
2019-04-05T16:23:24.099Z,17.07
2019-04-05T16:25:55.076Z,17.90
2019-04-05T16:28:25.931Z,17.67
2019-04-05T16:31:00.677Z,18.03
2019-04-05T16:33:32.920Z,17.73
2019-04-05T16:36:04.748Z,16.93
2019-04-05T16:38:35.512Z,17.07
2019-04-05T16:41:05.157Z,17.20
2019-04-05T16:43:34.796Z,20.50
2019-04-05T16:46:04.372Z,18.53
2019-04-05T16:48:34.069Z,17.77
2019-04-05T16:51:03.637Z,19.90
2019-04-05T16:54:04.525Z,15.20
2019-04-05T16:56:36.066Z,21.37
2019-04-05T16:59:05.460Z,21.17
2019-04-05T17:01:35.135Z,22.33
2019-04-05T17:04:04.820Z,22.90
2019-04-05T17:06:34.553Z,20.47
2019-04-05T17:09:06.484Z,20.63
2019-04-05T17:11:36.596Z,19.70
2019-04-05T17:14:06.268Z,21.07
2019-04-05T17:16:35.971Z,20.70
2019-04-05T17:19:05.634Z,21.27
2019-04-05T17:21:35.619Z,21.80
2019-04-05T17:24:05.343Z,18.90
2019-04-05T17:26:36.214Z,20.00
2019-04-05T17:29:05.889Z,17.70
2019-04-05T17:31:35.604Z,19.57
2019-04-05T17:34:05.184Z,17.33
2019-04-05T17:36:34.930Z,18.23
2019-04-05T17:39:07.245Z,19.40
2019-04-05T17:41:37.000Z,18.53
2019-04-05T17:44:06.645Z,18.37
2019-04-05T17:46:36.320Z,18.47
2019-04-05T17:49:07.008Z,17.73
2019-04-05T17:51:37.681Z,18.10
2019-04-05T17:54:07.301Z,18.97
2019-04-05T17:56:37.013Z,18.53
2019-04-05T17:59:06.695Z,16.83
2019-04-05T18:01:38.667Z,17.37
2019-04-05T18:04:07.653Z,17.13
2019-04-05T18:06:37.227Z,19.67
2019-04-05T18:09:07.392Z,20.00
2019-04-05T18:11:37.241Z,18.60
2019-04-05T18:14:06.924Z,19.17
2019-04-05T18:16:36.646Z,18.63
2019-04-05T18:19:06.309Z,19.07
2019-04-05T18:21:35.992Z,20.00
2019-04-05T18:24:05.948Z,19.90
2019-04-05T18:26:35.875Z,18.80
2019-04-05T18:29:05.804Z,16.48
2019-04-05T18:31:37.196Z,17.50
2019-04-05T18:34:07.076Z,16.80
2019-04-05T18:36:36.684Z,21.20
2019-04-05T18:39:07.427Z,19.63
2019-04-05T18:41:38.477Z,19.50
2019-04-05T18:44:08.462Z,19.12
2019-04-05T18:46:39.618Z,16.27
2019-04-05T18:49:09.600Z,18.10
2019-04-05T18:51:39.548Z,16.48
2019-04-05T18:54:09.464Z,23.65
2019-04-05T18:56:39.412Z,17.57
2019-04-05T18:59:09.345Z,17.02
2019-04-05T19:01:39.213Z,16.20
2019-04-05T19:04:09.134Z,17.37
2019-04-05T19:06:39.006Z,19.23
2019-04-05T19:09:11.774Z,21.45
2019-04-05T19:11:41.059Z,20.10
2019-04-05T19:14:10.664Z,19.27
2019-04-05T19:16:40.692Z,19.20
2019-04-05T19:19:10.644Z,23.87
2019-04-05T19:21:40.588Z,22.40
2019-04-05T19:24:10.500Z,21.57
2019-04-05T19:26:40.877Z,17.52
2019-04-05T19:29:10.760Z,21.60
2019-04-05T19:49:40.615Z,15.03
2019-04-05T19:52:10.686Z,19.95
2019-04-05T19:54:40.644Z,25.15
2019-04-05T19:57:10.552Z,20.30
2019-04-05T19:59:40.500Z,22.90
2019-04-05T20:02:10.512Z,17.45
2019-04-05T20:04:40.458Z,15.03
2019-04-05T20:07:10.395Z,16.73
2019-04-05T20:09:40.339Z,14.93
2019-04-05T20:12:10.420Z,16.87
2019-04-05T20:14:40.307Z,17.40
2019-04-05T20:17:10.288Z,15.70
2019-04-05T20:19:40.237Z,18.42
2019-04-05T20:22:10.211Z,18.25
2019-04-05T20:24:39.848Z,19.00
2019-04-05T20:27:09.710Z,17.85
2019-04-05T20:29:39.735Z,17.62
2019-04-05T20:32:09.721Z,17.57
2019-04-05T20:34:39.667Z,21.70
2019-04-05T20:37:09.577Z,20.57
2019-04-05T20:39:39.530Z,22.45
2019-04-05T20:42:09.132Z,18.50
2019-04-05T20:44:39.004Z,22.67
2019-04-05T20:47:08.924Z,24.10
2019-04-05T20:49:38.876Z,22.50
2019-04-05T20:52:08.768Z,23.85
2019-04-05T20:54:38.671Z,18.25
2019-04-05T20:57:08.542Z,19.98
2019-04-05T20:59:38.457Z,18.02
2019-04-05T21:02:08.328Z,20.72
2019-04-05T21:04:38.242Z,20.12
2019-04-05T21:07:08.180Z,17.95
2019-04-05T21:09:38.206Z,15.70
2019-04-05T21:12:08.424Z,22.70
2019-04-05T21:14:38.327Z,20.68
2019-04-05T21:17:08.210Z,19.32
2019-04-05T21:19:38.115Z,15.38
2019-04-05T21:22:08.176Z,15.98
2019-04-05T21:24:38.076Z,22.25
2019-04-05T21:27:07.968Z,16.23
2019-04-05T21:29:37.872Z,17.37
2019-04-05T21:32:07.808Z,20.00
2019-04-05T21:34:37.688Z,19.73
2019-04-05T21:37:07.596Z,15.95
2019-04-05T21:39:37.477Z,25.72
2019-04-05T21:42:07.456Z,19.35
2019-04-05T21:44:38.349Z,19.80
2019-04-05T21:47:08.760Z,20.23
2019-04-05T21:49:38.704Z,20.85
2019-04-05T21:52:08.622Z,14.85
2019-04-05T21:54:47.097Z,21.75
2019-04-05T21:57:10.023Z,28.07
2019-04-05T21:59:39.892Z,17.37
2019-04-05T22:02:09.770Z,22.30
2019-04-05T22:04:39.464Z,19.50
2019-04-05T22:07:09.613Z,22.58
2019-04-05T22:09:39.528Z,22.45
2019-04-05T22:12:09.405Z,22.75
2019-04-05T22:14:39.317Z,16.12
2019-04-05T22:17:09.188Z,20.60
2019-04-05T22:19:39.102Z,17.10
2019-04-05T22:22:08.976Z,15.70
2019-04-05T22:24:38.956Z,21.35
2019-04-05T22:27:08.832Z,25.30
2019-04-05T22:29:38.712Z,19.17
2019-04-05T22:32:08.621Z,18.10
2019-04-05T22:34:38.532Z,18.70
2019-04-05T22:37:08.101Z,18.30
2019-04-05T22:39:38.085Z,16.20
2019-04-05T22:42:07.963Z,24.20
2019-04-05T22:44:41.337Z,14.15
2019-04-05T22:47:09.388Z,20.92
2019-04-05T22:49:39.347Z,21.02
2019-04-05T22:52:09.228Z,21.20
2019-04-05T22:54:39.140Z,17.37
2019-04-05T22:57:10.731Z,21.48
2019-04-05T22:59:40.706Z,16.80
2019-04-05T23:02:10.581Z,22.82
2019-04-05T23:04:40.492Z,18.77
2019-04-05T23:07:10.372Z,21.73
2019-04-05T23:09:40.016Z,19.23
2019-04-05T23:12:09.938Z,20.48
2019-04-05T23:14:39.920Z,18.05
2019-04-05T23:17:09.795Z,17.32
2019-04-05T23:19:39.679Z,17.07
2019-04-05T23:22:09.659Z,20.00
2019-04-05T23:24:39.593Z,16.87
2019-04-05T23:27:09.472Z,22.13
2019-04-05T23:29:39.379Z,15.40
2019-04-05T23:32:09.292Z,16.40
2019-04-05T23:34:39.192Z,19.77
2019-04-05T23:37:09.076Z,16.55
2019-04-05T23:39:38.951Z,20.25
2019-04-05T23:42:08.860Z,24.12
2019-04-05T23:44:38.739Z,17.12
2019-04-05T23:47:09.984Z,18.80
2019-04-05T23:49:39.860Z,14.20
2019-04-05T23:52:09.776Z,17.00
2019-04-05T23:54:39.652Z,19.15
2019-04-05T23:57:09.536Z,19.87
2019-04-05T23:59:39.448Z,17.45
